Time;durP1;ratioP1;P1;durP2;ratioP2;P2;SDS_P1;SDS_P2;PMS_P1;PMS_P2;Temp;Humidity;BMP_temperature;BMP_pressure;BME280_temperature;BME280_humidity;BME280_pressure;Samples;Min_cycle;Max_cycle;Signal;HPM_P1;HPM_P2
2023/08/15 00:01:54;;;;;;;10.60;5.10;;;22.20;99.90;;;;;;4960988;28;20042;-75
2023/08/15 00:04:40;;;;;;;8.38;4.93;;;22.20;99.90;;;;;;4948005;28;20042;-75
2023/08/15 00:07:26;;;;;;;11.18;5.15;;;22.10;99.90;;;;;;4971392;28;20038;-74
2023/08/15 00:10:12;;;;;;;10.25;5.07;;;22.10;99.90;;;;;;4954012;28;20050;-74
2023/08/15 00:12:58;;;;;;;6.85;4.78;;;22.10;99.90;;;;;;4967385;28;20053;-74
2023/08/15 00:15:44;;;;;;;7.35;4.43;;;22.00;99.90;;;;;;4951447;28;20045;-74
2023/08/15 00:18:30;;;;;;;6.55;4.53;;;22.10;99.90;;;;;;4948616;28;20050;-75
2023/08/15 00:21:16;;;;;;;6.82;4.32;;;22.00;99.90;;;;;;4962031;28;20038;-75
2023/08/15 00:24:03;;;;;;;9.00;5.00;;;22.10;99.90;;;;;;4977792;28;20042;-75
2023/08/15 00:26:49;;;;;;;8.10;4.88;;;22.10;99.90;;;;;;4968834;28;20035;-75
2023/08/15 00:29:35;;;;;;;9.70;4.35;;;22.00;99.90;;;;;;4958944;28;20042;-75
2023/08/15 00:32:21;;;;;;;7.35;4.20;;;22.10;99.90;;;;;;4954355;29;20043;-75
2023/08/15 00:35:09;;;;;;;10.52;4.50;;;22.00;99.90;;;;;;4940659;29;20038;-75
2023/08/15 00:37:55;;;;;;;7.03;4.50;;;22.00;99.90;;;;;;4958183;28;20043;-74
2023/08/15 00:40:41;;;;;;;7.90;4.18;;;22.00;99.90;;;;;;4953201;29;20043;-73
2023/08/15 00:43:27;;;;;;;7.07;4.30;;;22.00;99.90;;;;;;4964785;28;20058;-74
2023/08/15 00:46:13;;;;;;;7.20;4.18;;;22.00;99.90;;;;;;4958371;28;20058;-74
2023/08/15 00:48:59;;;;;;;8.23;5.00;;;22.00;99.90;;;;;;4946716;28;20101;-74
2023/08/15 00:51:46;;;;;;;11.02;5.07;;;22.00;99.90;;;;;;4948345;28;20656;-74
2023/08/15 00:54:33;;;;;;;10.07;4.00;;;22.00;99.90;;;;;;4960436;28;20061;-74
2023/08/15 00:57:19;;;;;;;7.60;4.70;;;21.90;99.90;;;;;;4958580;28;20046;-74
2023/08/15 01:00:06;;;;;;;6.53;4.18;;;21.90;99.90;;;;;;4946065;28;20043;-74
2023/08/15 01:02:52;;;;;;;11.50;4.50;;;21.80;99.90;;;;;;4944496;29;20054;-74
2023/08/15 01:05:38;;;;;;;7.28;4.10;;;21.80;99.90;;;;;;4921679;28;20282;-74
2023/08/15 01:08:24;;;;;;;5.97;4.00;;;21.80;99.90;;;;;;4936123;29;20046;-74
2023/08/15 01:11:11;;;;;;;6.68;4.63;;;21.80;99.90;;;;;;4921786;29;20039;-74
2023/08/15 01:14:01;;;;;;;8.65;4.20;;;21.80;99.90;;;;;;4949632;28;20043;-74
2023/08/15 01:16:48;;;;;;;6.43;4.40;;;21.80;99.90;;;;;;4940069;29;20031;-74
2023/08/15 01:19:39;;;;;;;9.77;4.60;;;21.70;99.90;;;;;;4928629;29;20058;-74
2023/08/15 01:22:28;;;;;;;7.07;4.53;;;21.70;99.90;;;;;;4939048;29;20495;-74
2023/08/15 01:25:14;;;;;;;6.30;4.50;;;21.60;99.90;;;;;;4935266;29;20050;-74
2023/08/15 01:28:00;;;;;;;7.65;4.60;;;21.60;99.90;;;;;;4954017;28;20039;-74
2023/08/15 01:31:01;;;;;;;7.82;4.10;;;21.50;99.90;;;;;;4948310;28;20035;-74
2023/08/15 01:34:16;;;;;;;7.38;4.05;;;21.60;99.90;;;;;;4932282;28;20038;-74
2023/08/15 01:37:16;;;;;;;7.45;3.92;;;21.50;99.90;;;;;;4958257;28;20039;-74
2023/08/15 01:40:04;;;;;;;9.50;4.35;;;21.50;99.90;;;;;;4908349;29;20046;-74
2023/08/15 01:42:50;;;;;;;7.40;4.35;;;21.50;99.90;;;;;;4931384;28;20336;-74
2023/08/15 01:45:36;;;;;;;5.95;3.70;;;21.50;99.90;;;;;;4959339;28;20070;-73
2023/08/15 01:48:22;;;;;;;8.30;4.78;;;21.50;99.90;;;;;;4928882;29;20044;-74
2023/08/15 01:51:08;;;;;;;8.07;4.28;;;21.40;99.90;;;;;;4939914;28;20420;-74
2023/08/15 01:53:54;;;;;;;8.70;4.20;;;21.40;99.90;;;;;;4945116;28;20075;-74
2023/08/15 01:56:40;;;;;;;6.30;3.80;;;21.40;99.90;;;;;;4946703;29;20631;-74
2023/08/15 01:59:26;;;;;;;12.02;4.40;;;21.40;99.90;;;;;;4934506;29;20057;-74
2023/08/15 02:02:12;;;;;;;8.73;4.20;;;21.40;99.90;;;;;;4938963;28;20148;-74
2023/08/15 02:05:01;;;;;;;8.40;4.03;;;21.30;99.90;;;;;;4970765;28;20045;-74
2023/08/15 02:07:48;;;;;;;8.82;4.30;;;21.30;99.90;;;;;;4944784;28;20100;-74
2023/08/15 02:10:34;;;;;;;9.00;4.78;;;21.30;99.90;;;;;;4938827;29;20042;-74
2023/08/15 02:13:20;;;;;;;10.32;4.95;;;21.20;99.90;;;;;;4964094;28;20088;-74
2023/08/15 02:16:06;;;;;;;6.32;3.95;;;21.20;99.90;;;;;;4945249;28;20060;-74
2023/08/15 02:18:52;;;;;;;7.70;4.05;;;21.20;99.90;;;;;;4959123;28;20038;-74
2023/08/15 02:21:38;;;;;;;10.95;4.00;;;21.10;99.90;;;;;;4938199;29;20046;-73
2023/08/15 02:24:24;;;;;;;6.63;3.80;;;21.10;99.90;;;;;;4946555;28;20038;-74
2023/08/15 02:27:11;;;;;;;7.25;3.60;;;21.10;99.90;;;;;;4939629;28;20045;-73
2023/08/15 02:29:57;;;;;;;8.33;4.20;;;21.10;99.90;;;;;;4969899;28;20043;-74
2023/08/15 02:32:44;;;;;;;8.45;3.78;;;21.10;99.90;;;;;;4971063;28;20047;-74
2023/08/15 02:35:30;;;;;;;6.20;3.58;;;21.10;99.90;;;;;;4964363;28;20069;-74
2023/08/15 02:38:16;;;;;;;12.70;4.15;;;21.10;99.90;;;;;;4959158;28;20158;-75
2023/08/15 02:41:02;;;;;;;7.63;4.07;;;21.10;99.90;;;;;;4959727;28;20041;-75
2023/08/15 02:43:48;;;;;;;7.93;3.60;;;21.00;99.90;;;;;;4945286;28;20057;-75
2023/08/15 02:46:37;;;;;;;7.65;3.70;;;21.00;99.90;;;;;;4958810;28;20058;-75
2023/08/15 02:49:23;;;;;;;7.80;4.15;;;21.00;99.90;;;;;;4952085;28;20105;-75
2023/08/15 02:52:11;;;;;;;6.53;4.13;;;21.00;99.90;;;;;;4971090;28;20042;-75
2023/08/15 02:54:57;;;;;;;9.98;4.45;;;21.00;99.90;;;;;;4976595;28;20551;-74
2023/08/15 02:57:43;;;;;;;7.18;4.10;;;21.00;99.90;;;;;;4959198;28;20138;-74
2023/08/15 03:00:29;;;;;;;8.18;3.35;;;21.00;99.90;;;;;;4960917;28;20039;-74
2023/08/15 03:03:15;;;;;;;6.70;3.38;;;20.90;99.90;;;;;;4957721;28;20058;-75
2023/08/15 03:06:01;;;;;;;5.22;3.47;;;20.90;99.90;;;;;;4960432;28;20047;-75
2023/08/15 03:08:47;;;;;;;5.22;3.30;;;20.90;99.90;;;;;;4945501;28;20047;-75
2023/08/15 03:11:34;;;;;;;5.63;3.00;;;20.80;99.90;;;;;;4950032;28;20894;-74
2023/08/15 03:14:20;;;;;;;4.55;3.08;;;20.80;99.90;;;;;;4946593;28;20514;-75
2023/08/15 03:17:09;;;;;;;8.07;3.00;;;20.80;99.90;;;;;;4958361;28;20043;-74
2023/08/15 03:19:56;;;;;;;7.65;3.15;;;20.70;99.90;;;;;;4964686;28;20039;-74
2023/08/15 03:22:43;;;;;;;5.70;3.17;;;20.70;99.90;;;;;;4972976;28;20097;-75
2023/08/15 03:25:29;;;;;;;7.85;3.65;;;20.70;99.90;;;;;;4960887;28;20039;-75
2023/08/15 03:28:16;;;;;;;5.38;3.05;;;20.70;99.90;;;;;;4961758;28;20039;-75
2023/08/15 03:31:08;;;;;;;6.78;3.20;;;20.60;99.90;;;;;;4938355;28;20053;-74
2023/08/15 03:33:54;;;;;;;6.00;3.20;;;20.60;99.90;;;;;;4953759;28;20179;-75
2023/08/15 03:36:41;;;;;;;7.15;3.70;;;20.60;99.90;;;;;;4935054;28;20035;-75
2023/08/15 03:39:28;;;;;;;;;;;20.50;99.90;;;;;;4975323;28;20065;-74
2023/08/15 03:42:14;;;;;;;5.93;3.08;;;20.50;99.90;;;;;;4974143;28;20249;-75
2023/08/15 03:45:00;;;;;;;9.15;3.55;;;20.40;99.90;;;;;;4958375;28;20038;-75
2023/08/15 03:47:46;;;;;;;7.43;3.58;;;20.40;99.90;;;;;;4973470;28;20074;-74
2023/08/15 03:50:37;;;;;;;6.43;2.80;;;20.40;99.90;;;;;;4975369;28;20039;-74
2023/08/15 03:53:26;;;;;;;4.82;2.95;;;20.40;99.90;;;;;;4939247;28;20074;-74
2023/08/15 03:56:12;;;;;;;9.23;3.80;;;20.40;99.90;;;;;;4962442;28;20125;-74
2023/08/15 03:59:00;;;;;;;7.50;3.42;;;20.40;99.90;;;;;;4961789;28;20054;-73
2023/08/15 04:01:46;;;;;;;8.52;3.05;;;20.40;99.90;;;;;;4951726;28;20034;-74
2023/08/15 04:04:32;;;;;;;6.55;3.10;;;20.40;99.90;;;;;;4960019;28;20854;-76
2023/08/15 04:07:18;;;;;;;5.35;3.03;;;20.40;99.90;;;;;;4948140;28;20158;-75
2023/08/15 04:10:04;;;;;;;5.22;3.08;;;20.30;99.90;;;;;;4947728;28;20039;-77
2023/08/15 04:12:52;;;;;;;9.32;3.35;;;20.30;99.90;;;;;;4967560;28;20117;-75
2023/08/15 04:15:38;;;;;;;6.78;3.03;;;20.30;99.90;;;;;;4965485;28;20658;-76
2023/08/15 04:18:24;;;;;;;6.03;3.30;;;20.30;99.90;;;;;;4948111;28;20262;-75
2023/08/15 04:21:11;;;;;;;9.88;3.00;;;20.30;99.90;;;;;;4947182;28;20161;-76
2023/08/15 04:23:57;;;;;;;7.70;3.30;;;20.30;99.90;;;;;;4946933;28;20043;-76
2023/08/15 04:26:43;;;;;;;6.40;3.00;;;20.30;99.90;;;;;;4977803;28;20086;-76
2023/08/15 04:29:29;;;;;;;5.38;3.00;;;20.30;99.90;;;;;;4949731;28;20042;-76
2023/08/15 04:32:15;;;;;;;6.15;3.08;;;20.30;99.90;;;;;;4960064;28;20045;-76
2023/08/15 04:35:02;;;;;;;8.95;3.40;;;20.30;99.90;;;;;;4958905;28;20097;-76
2023/08/15 04:37:48;;;;;;;6.45;3.38;;;20.30;99.90;;;;;;4946081;28;20101;-76
2023/08/15 04:40:35;;;;;;;5.85;2.97;;;20.30;99.90;;;;;;4960335;28;20047;-77
2023/08/15 04:43:21;;;;;;;7.68;3.13;;;20.30;99.90;;;;;;4962435;28;20043;-76
2023/08/15 04:46:07;;;;;;;7.45;2.95;;;20.30;99.90;;;;;;4946719;28;20066;-76
2023/08/15 04:48:53;;;;;;;6.93;3.38;;;20.30;99.90;;;;;;4960019;28;20049;-76
2023/08/15 04:51:39;;;;;;;7.40;3.67;;;20.30;99.90;;;;;;4945298;28;20072;-76
2023/08/15 04:54:27;;;;;;;10.18;3.30;;;20.20;99.90;;;;;;4960209;28;20056;-76
2023/08/15 04:57:13;;;;;;;4.75;2.80;;;20.30;99.90;;;;;;4946167;28;20043;-76
2023/08/15 04:59:59;;;;;;;3.80;2.83;;;20.30;99.90;;;;;;4963882;28;20093;-76
2023/08/15 05:02:46;;;;;;;4.80;3.05;;;20.30;99.90;;;;;;4960015;28;20132;-76
2023/08/15 05:05:32;;;;;;;5.93;2.72;;;20.30;99.90;;;;;;4961856;28;20050;-76
2023/08/15 05:08:18;;;;;;;4.95;2.83;;;20.30;99.90;;;;;;4964494;28;20049;-75
2023/08/15 05:11:04;;;;;;;6.05;2.90;;;20.30;99.90;;;;;;4964284;28;20668;-76
2023/08/15 05:13:50;;;;;;;4.50;2.70;;;20.30;99.90;;;;;;4959700;28;20069;-76
2023/08/15 05:16:37;;;;;;;8.70;3.40;;;20.30;99.90;;;;;;4940088;29;20578;-76
2023/08/15 05:19:24;;;;;;;4.27;2.63;;;20.40;99.90;;;;;;4948150;28;20487;-76
2023/08/15 05:22:10;;;;;;;8.18;2.80;;;20.40;99.90;;;;;;4960047;28;20504;-76
2023/08/15 05:24:56;;;;;;;8.30;3.08;;;20.40;99.90;;;;;;4945265;28;20042;-75
2023/08/15 05:27:42;;;;;;;4.95;3.03;;;20.50;99.90;;;;;;4956871;28;20047;-76
2023/08/15 05:30:28;;;;;;;7.75;3.40;;;20.50;99.90;;;;;;4959473;28;20070;-76
2023/08/15 05:33:14;;;;;;;6.93;3.45;;;20.60;99.90;;;;;;4957575;28;20057;-76
2023/08/15 05:35:59;;;;;;;6.55;3.17;;;20.60;99.90;;;;;;4945938;28;20043;-76
2023/08/15 05:38:45;;;;;;;7.95;3.65;;;20.70;99.90;;;;;;4956134;28;20118;-76
2023/08/15 05:41:31;;;;;;;5.18;3.05;;;20.70;99.90;;;;;;4959708;28;20125;-76
2023/08/15 05:44:17;;;;;;;8.95;2.85;;;20.70;99.90;;;;;;4955491;28;20050;-76
2023/08/15 05:47:03;;;;;;;5.05;3.08;;;20.70;99.90;;;;;;4950873;28;20478;-76
2023/08/15 05:49:49;;;;;;;4.72;3.17;;;20.80;99.90;;;;;;4964899;28;20122;-76
2023/08/15 05:52:37;;;;;;;7.10;3.20;;;20.80;99.90;;;;;;4954923;28;20101;-76
2023/08/15 05:55:23;;;;;;;6.72;3.03;;;20.90;99.90;;;;;;4958427;28;20042;-76
2023/08/15 05:58:09;;;;;;;6.22;3.45;;;20.90;99.90;;;;;;4958193;28;20186;-75
2023/08/15 06:00:55;;;;;;;5.60;3.30;;;21.00;99.90;;;;;;4959478;28;20043;-76
2023/08/15 06:03:41;;;;;;;7.38;2.92;;;21.00;99.90;;;;;;4945788;28;20129;-74
2023/08/15 06:06:27;;;;;;;5.97;3.80;;;21.10;99.90;;;;;;4959122;28;20065;-74
2023/08/15 06:09:13;;;;;;;5.88;2.88;;;21.10;99.90;;;;;;4949908;28;20045;-74
2023/08/15 06:12:00;;;;;;;9.98;3.60;;;21.10;99.90;;;;;;4959569;28;20053;-73
2023/08/15 06:14:46;;;;;;;7.07;3.28;;;21.20;99.90;;;;;;4957856;28;20419;-74
2023/08/15 06:17:32;;;;;;;6.43;2.90;;;21.20;99.90;;;;;;4958089;28;20108;-76
2023/08/15 06:20:19;;;;;;;6.85;3.10;;;21.30;99.90;;;;;;4931343;28;20046;-75
2023/08/15 06:23:05;;;;;;;7.18;3.38;;;21.20;99.90;;;;;;4956462;28;20188;-76
2023/08/15 06:25:50;;;;;;;5.72;3.20;;;21.30;99.90;;;;;;4958021;28;20102;-76
2023/08/15 06:28:36;;;;;;;8.48;2.90;;;21.40;99.90;;;;;;4943314;28;20084;-76
2023/08/15 06:31:22;;;;;;;10.57;3.80;;;21.40;99.90;;;;;;4947616;28;20047;-76
2023/08/15 06:34:08;;;;;;;9.20;4.07;;;21.50;99.90;;;;;;4966450;28;20043;-76
2023/08/15 06:36:54;;;;;;;7.57;3.70;;;21.50;99.90;;;;;;4959140;28;20045;-76
2023/08/15 06:39:40;;;;;;;7.20;3.75;;;21.60;99.90;;;;;;4957574;28;20031;-74
2023/08/15 06:42:26;;;;;;;8.40;3.50;;;21.60;99.90;;;;;;4945826;28;20045;-73
2023/08/15 06:45:12;;;;;;;12.55;3.90;;;21.70;99.90;;;;;;4963578;28;20485;-73
2023/08/15 06:47:58;;;;;;;5.13;3.35;;;21.80;99.90;;;;;;4978617;28;20112;-73
2023/08/15 06:50:44;;;;;;;7.57;4.13;;;21.80;99.90;;;;;;4978040;28;20474;-73
2023/08/15 06:53:33;;;;;;;9.25;4.35;;;21.80;99.90;;;;;;4966953;28;20069;-76
2023/08/15 06:56:19;;;;;;;13.60;4.82;;;21.80;99.90;;;;;;4940772;28;20066;-76
2023/08/15 06:59:05;;;;;;;5.50;4.05;;;21.80;99.90;;;;;;4962757;28;20053;-76
2023/08/15 07:01:52;;;;;;;8.45;3.97;;;21.70;99.90;;;;;;4959486;28;20050;-75
2023/08/15 07:04:40;;;;;;;8.87;4.43;;;21.70;99.90;;;;;;4949104;28;21707;-73
2023/08/15 07:07:26;;;;;;;12.93;4.38;;;21.70;99.90;;;;;;4934264;28;20097;-74
2023/08/15 07:10:12;;;;;;;8.90;4.25;;;21.60;99.90;;;;;;4946517;28;20125;-74
2023/08/15 07:13:10;;;;;;;8.98;4.93;;;21.50;99.90;;;;;;4974489;28;20105;-74
2023/08/15 07:15:59;;;;;;;10.57;5.30;;;21.40;99.90;;;;;;4959447;28;20451;-74
2023/08/15 07:19:26;;;;;;;9.38;5.03;;;21.30;99.90;;;;;;4963650;28;20436;-76
2023/08/15 07:22:12;;;;;;;8.93;5.68;;;21.30;99.90;;;;;;4976839;28;20043;-75
2023/08/15 07:25:05;;;;;;;8.90;4.50;;;21.10;99.90;;;;;;4961868;28;20047;-74
2023/08/15 07:27:51;;;;;;;8.63;4.22;;;21.10;99.90;;;;;;4961267;28;20046;-73
2023/08/15 07:30:45;;;;;;;7.88;4.38;;;21.20;99.90;;;;;;4964079;28;20383;-73
2023/08/15 07:33:31;;;;;;;5.95;4.32;;;21.20;99.90;;;;;;4960940;28;20043;-73
2023/08/15 07:36:17;;;;;;;5.88;4.53;;;21.30;99.90;;;;;;4957302;28;20054;-73
2023/08/15 07:39:06;;;;;;;7.03;4.20;;;21.20;99.90;;;;;;4962660;28;20050;-73
2023/08/15 07:41:53;;;;;;;9.60;4.15;;;21.20;99.90;;;;;;4929188;29;20058;-73
2023/08/15 07:44:43;;;;;;;7.43;3.83;;;21.20;99.90;;;;;;4957029;28;20039;-73
2023/08/15 07:47:58;;;;;;;12.25;4.50;;;21.20;99.90;;;;;;4975042;28;20073;-75
2023/08/15 07:50:53;;;;;;;10.35;4.32;;;21.30;99.90;;;;;;4959481;28;20046;-75
2023/08/15 07:53:42;;;;;;;9.10;4.50;;;21.30;99.90;;;;;;4961318;28;20130;-73
2023/08/15 07:56:30;;;;;;;8.05;4.03;;;21.40;99.90;;;;;;4961359;28;20065;-75
2023/08/15 07:59:18;;;;;;;6.97;3.45;;;21.40;99.90;;;;;;4954633;28;20158;-75
2023/08/15 08:02:06;;;;;;;6.72;3.03;;;21.40;99.90;;;;;;4972695;28;20039;-75
2023/08/15 08:04:52;;;;;;;4.78;2.85;;;21.50;99.90;;;;;;4948485;28;20058;-73
2023/08/15 08:07:46;;;;;;;5.22;2.78;;;21.50;99.90;;;;;;4960317;28;20134;-75
2023/08/15 08:10:33;;;;;;;6.15;2.53;;;21.60;99.90;;;;;;4948598;28;20049;-75
2023/08/15 08:13:20;;;;;;;5.80;2.40;;;21.60;99.90;;;;;;4961499;28;20046;-75
2023/08/15 08:16:07;;;;;;;5.95;2.38;;;21.60;99.90;;;;;;4975329;28;20298;-75
2023/08/15 08:18:53;;;;;;;3.47;2.10;;;21.60;99.90;;;;;;4955314;28;20086;-75
2023/08/15 08:21:39;;;;;;;4.47;2.00;;;21.60;99.90;;;;;;4948268;28;20423;-76
2023/08/15 08:24:25;;;;;;;5.22;2.20;;;21.70;99.90;;;;;;4949974;28;20054;-75
2023/08/15 08:27:11;;;;;;;5.25;2.13;;;21.70;99.90;;;;;;4962210;28;20038;-76
2023/08/15 08:29:57;;;;;;;4.00;1.90;;;21.70;99.90;;;;;;4974143;28;20042;-76
2023/08/15 08:32:45;;;;;;;3.15;1.95;;;21.80;99.90;;;;;;4968744;28;20042;-76
2023/08/15 08:39:13;;;;;;;3.33;1.70;;;21.80;99.90;;;;;;4956994;28;20046;-74
2023/08/15 08:42:00;;;;;;;3.75;1.45;;;21.70;99.90;;;;;;4947110;28;20570;-73
2023/08/15 08:44:46;;;;;;;3.63;1.90;;;21.80;99.90;;;;;;4946682;28;20051;-75
2023/08/15 08:47:33;;;;;;;3.55;1.80;;;21.80;99.90;;;;;;4949491;28;20109;-76
2023/08/15 08:50:19;;;;;;;4.13;1.70;;;21.90;99.90;;;;;;4962444;28;20250;-73
2023/08/15 08:53:05;;;;;;;3.97;1.70;;;22.00;99.90;;;;;;4968306;28;20054;-73
2023/08/15 08:55:51;;;;;;;3.40;1.83;;;22.10;99.90;;;;;;4951740;28;20122;-73
2023/08/15 08:58:37;;;;;;;3.67;1.60;;;22.10;99.90;;;;;;4942467;28;20039;-75
2023/08/15 09:01:23;;;;;;;2.97;1.60;;;22.10;99.90;;;;;;4956699;28;20546;-75
2023/08/15 09:04:09;;;;;;;3.13;1.60;;;22.30;99.90;;;;;;4944805;28;20050;-75
2023/08/15 09:06:55;;;;;;;4.22;1.50;;;22.30;99.90;;;;;;4962762;28;20042;-74
2023/08/15 09:09:41;;;;;;;5.40;2.08;;;22.30;99.90;;;;;;4972362;28;20073;-75
2023/08/15 09:12:39;;;;;;;4.97;1.90;;;22.30;99.90;;;;;;4951728;28;20050;-75
2023/08/15 09:15:25;;;;;;;7.35;2.55;;;22.30;99.90;;;;;;4973311;28;20042;-75
2023/08/15 09:18:11;;;;;;;7.00;2.10;;;22.40;99.90;;;;;;4961137;28;20043;-75
2023/08/15 09:20:57;;;;;;;6.65;2.10;;;22.40;99.90;;;;;;4951210;28;20044;-74
2023/08/15 09:23:44;;;;;;;4.90;2.30;;;22.40;99.90;;;;;;4949955;28;20122;-74
2023/08/15 09:26:34;;;;;;;2.97;1.80;;;22.60;99.90;;;;;;4954951;28;20043;-74
2023/08/15 09:29:21;;;;;;;3.67;2.13;;;22.60;99.90;;;;;;4957920;28;20294;-75
2023/08/15 09:32:08;;;;;;;5.15;2.22;;;22.70;99.90;;;;;;4959633;28;20043;-74
2023/08/15 09:34:54;;;;;;;5.40;1.30;;;22.80;99.90;;;;;;4964080;28;20337;-75
2023/08/15 09:37:44;;;;;;;4.05;1.50;;;22.90;99.90;;;;;;4969679;28;20145;-74
2023/08/15 09:40:30;;;;;;;4.10;1.30;;;22.90;99.90;;;;;;4982680;28;20034;-75
2023/08/15 09:43:16;;;;;;;2.80;1.30;;;23.00;99.90;;;;;;4986518;28;20050;-75
2023/08/15 09:46:02;;;;;;;3.22;1.42;;;23.10;99.90;;;;;;4980065;28;20133;-75
2023/08/15 09:48:48;;;;;;;4.50;1.13;;;23.00;99.90;;;;;;4992567;28;20046;-75
2023/08/15 09:51:34;;;;;;;1.92;1.50;;;23.10;99.90;;;;;;4975903;28;20038;-75
2023/08/15 09:54:21;;;;;;;3.33;1.90;;;23.20;99.90;;;;;;4978693;28;20057;-74
2023/08/15 09:57:06;;;;;;;3.70;1.30;;;23.30;99.90;;;;;;4977563;28;20050;-75
2023/08/15 09:59:52;;;;;;;3.30;1.40;;;23.30;99.90;;;;;;4965929;28;20049;-75
2023/08/15 10:02:45;;;;;;;3.45;1.77;;;23.40;99.90;;;;;;4977925;28;20548;-77
2023/08/15 10:05:34;;;;;;;2.08;1.20;;;23.50;99.90;;;;;;4973545;28;20045;-74
2023/08/15 10:08:21;;;;;;;2.55;1.20;;;23.60;99.90;;;;;;4989721;28;20034;-75
2023/08/15 10:11:09;;;;;;;1.55;1.23;;;23.70;99.90;;;;;;4974546;28;20474;-76
2023/08/15 10:13:55;;;;;;;3.20;1.45;;;23.90;99.90;;;;;;4971609;28;20046;-75
2023/08/15 10:16:41;;;;;;;2.72;1.42;;;24.00;99.90;;;;;;4973563;28;20173;-75
2023/08/15 10:19:29;;;;;;;2.05;1.00;;;24.10;99.90;;;;;;4991574;28;20038;-75
2023/08/15 10:22:19;;;;;;;2.58;1.30;;;24.30;99.90;;;;;;4973814;28;20044;-76
2023/08/15 10:25:31;;;;;;;3.50;1.23;;;24.40;99.90;;;;;;4979066;28;20050;-75
2023/08/15 10:28:17;;;;;;;3.10;1.30;;;24.50;99.90;;;;;;4977045;28;20117;-75
2023/08/15 10:31:04;;;;;;;4.30;1.83;;;24.50;99.90;;;;;;4970936;28;20042;-75
2023/08/15 10:33:50;;;;;;;2.95;1.40;;;24.60;99.90;;;;;;4991285;28;20887;-75
2023/08/15 10:36:36;;;;;;;2.58;1.30;;;24.80;99.90;;;;;;4975943;28;20104;-74
2023/08/15 10:39:22;;;;;;;3.08;1.40;;;24.80;99.90;;;;;;4987636;28;20112;-75
2023/08/15 10:42:08;;;;;;;1.92;1.45;;;24.80;99.90;;;;;;4977419;28;20081;-75
2023/08/15 10:45:00;;;;;;;3.45;1.50;;;24.80;99.90;;;;;;4981061;28;20045;-75
2023/08/15 10:47:46;;;;;;;2.83;1.17;;;24.90;99.90;;;;;;4988925;28;20056;-75
2023/08/15 10:50:33;;;;;;;3.58;1.42;;;25.00;99.90;;;;;;4975786;28;20740;-75
2023/08/15 10:53:19;;;;;;;2.25;1.30;;;25.00;99.90;;;;;;4959732;28;20126;-75
2023/08/15 10:56:05;;;;;;;3.33;1.30;;;25.10;99.90;;;;;;4987506;28;20038;-75
2023/08/15 10:58:51;;;;;;;2.05;1.10;;;25.10;99.90;;;;;;4950008;28;20054;-75
2023/08/15 11:01:37;;;;;;;3.00;1.42;;;25.20;99.90;;;;;;4975095;28;20101;-75
2023/08/15 11:04:24;;;;;;;1.20;0.93;;;25.30;99.90;;;;;;4987748;28;20058;-75
2023/08/15 11:07:10;;;;;;;2.25;1.15;;;25.30;99.90;;;;;;4962056;28;20053;-75
2023/08/15 11:09:56;;;;;;;1.83;1.25;;;25.50;99.90;;;;;;4976846;28;20120;-75
2023/08/15 11:12:48;;;;;;;2.75;1.27;;;25.60;99.90;;;;;;4980513;28;20452;-75
2023/08/15 11:15:34;;;;;;;1.98;1.30;;;25.70;99.90;;;;;;4966625;28;20489;-75
2023/08/15 11:18:22;;;;;;;2.30;1.23;;;25.80;99.90;;;;;;4976085;28;20379;-75
2023/08/15 11:21:09;;;;;;;3.38;1.20;;;25.80;99.90;;;;;;4966950;28;20039;-75
2023/08/15 11:23:57;;;;;;;;;;;25.90;99.90;;;;;;4974277;28;20046;-75
2023/08/15 11:26:44;;;;;;;1.90;1.13;;;26.10;99.90;;;;;;4986195;28;19949;-75
2023/08/15 11:29:30;;;;;;;2.20;1.27;;;26.20;99.90;;;;;;4958543;28;20054;-75
2023/08/15 11:32:16;;;;;;;1.98;1.50;;;26.30;99.90;;;;;;4978088;28;20431;-74
2023/08/15 11:35:02;;;;;;;2.42;1.40;;;26.30;99.90;;;;;;4970837;28;20046;-75
2023/08/15 11:37:48;;;;;;;2.40;1.17;;;26.30;99.90;;;;;;4973811;28;20077;-75
2023/08/15 11:40:35;;;;;;;2.15;1.25;;;26.40;99.90;;;;;;4977832;28;20038;-74
2023/08/15 11:43:21;;;;;;;1.92;1.20;;;26.60;99.90;;;;;;4974901;28;20046;-75
2023/08/15 11:46:07;;;;;;;2.40;1.30;;;26.50;99.90;;;;;;4993605;28;20042;-75
2023/08/15 11:48:53;;;;;;;2.03;1.20;;;26.50;99.90;;;;;;4963364;28;20197;-75
2023/08/15 11:51:39;;;;;;;2.10;1.00;;;26.50;99.90;;;;;;4976971;28;20053;-75
2023/08/15 11:54:26;;;;;;;2.80;1.35;;;26.70;99.90;;;;;;4994323;28;20050;-75
2023/08/15 11:57:12;;;;;;;2.35;1.27;;;26.70;99.90;;;;;;4982828;28;20038;-75
2023/08/15 11:59:58;;;;;;;2.20;1.38;;;26.60;99.90;;;;;;4993823;28;20057;-75
2023/08/15 12:02:48;;;;;;;3.47;1.27;;;26.80;99.90;;;;;;4964646;28;20049;-75
2023/08/15 12:05:34;;;;;;;3.75;1.35;;;27.00;99.90;;;;;;4964535;28;20529;-75
2023/08/15 12:08:20;;;;;;;2.20;1.30;;;27.00;99.90;;;;;;4991162;28;20073;-75
2023/08/15 12:11:07;;;;;;;5.80;1.50;;;27.00;99.90;;;;;;4978197;28;20038;-75
2023/08/15 12:13:53;;;;;;;2.63;1.40;;;27.10;99.90;;;;;;4964331;28;20052;-75
2023/08/15 12:16:40;;;;;;;3.35;1.20;;;27.10;99.90;;;;;;4979625;28;20038;-75
2023/08/15 12:19:26;;;;;;;2.78;1.50;;;27.00;99.90;;;;;;4978457;28;20053;-75
2023/08/15 12:22:12;;;;;;;2.08;1.50;;;26.90;99.90;;;;;;4977605;28;20410;-75
2023/08/15 12:24:59;;;;;;;2.88;1.13;;;27.00;99.90;;;;;;4966490;28;20084;-75
2023/08/15 12:27:44;;;;;;;3.22;1.45;;;27.10;99.90;;;;;;4971507;28;20487;-76
2023/08/15 12:30:30;;;;;;;2.30;1.50;;;27.20;99.90;;;;;;4980150;28;20050;-76
2023/08/15 12:33:16;;;;;;;3.72;1.40;;;27.20;99.90;;;;;;4973882;28;20125;-76
2023/08/15 12:36:03;;;;;;;3.00;1.60;;;27.20;99.90;;;;;;4952983;28;20450;-75
2023/08/15 12:38:49;;;;;;;3.28;1.30;;;26.90;99.90;;;;;;4967118;28;20508;-75
2023/08/15 12:41:35;;;;;;;2.47;1.52;;;26.60;99.90;;;;;;4984403;28;20794;-75
2023/08/15 12:44:21;;;;;;;2.63;1.52;;;26.50;99.90;;;;;;4973669;28;20371;-76
2023/08/15 12:47:08;;;;;;;2.63;1.48;;;26.60;99.90;;;;;;4973517;28;20094;-75
2023/08/15 12:49:54;;;;;;;2.80;1.17;;;26.90;99.90;;;;;;4966521;28;20129;-76
2023/08/15 12:52:40;;;;;;;2.35;1.35;;;26.90;99.90;;;;;;4948100;28;20090;-76
2023/08/15 12:55:26;;;;;;;3.30;1.45;;;26.80;99.90;;;;;;4983898;28;20124;-75
2023/08/15 12:58:12;;;;;;;1.95;1.38;;;27.10;99.90;;;;;;4963423;28;20066;-75
2023/08/15 13:01:00;;;;;;;2.00;1.20;;;27.20;99.90;;;;;;4978912;28;20034;-76
2023/08/15 13:03:46;;;;;;;3.90;1.50;;;27.30;99.90;;;;;;4961281;28;20043;-75
2023/08/15 13:06:32;;;;;;;2.63;1.40;;;27.50;99.90;;;;;;4974057;28;20047;-75
2023/08/15 13:09:18;;;;;;;2.30;1.50;;;27.60;99.90;;;;;;4977875;28;20038;-76
2023/08/15 13:12:04;;;;;;;4.07;1.80;;;27.50;99.90;;;;;;4991844;28;20505;-75
2023/08/15 13:14:50;;;;;;;3.72;1.42;;;27.70;99.90;;;;;;4986821;28;20274;-76
2023/08/15 13:17:36;;;;;;;2.40;1.58;;;27.70;99.90;;;;;;4979290;28;20093;-76
2023/08/15 13:20:22;;;;;;;2.20;1.50;;;27.40;99.90;;;;;;4975260;28;20061;-75
2023/08/15 13:23:08;;;;;;;2.78;1.52;;;27.60;99.90;;;;;;4977064;28;20121;-76
2023/08/15 13:25:55;;;;;;;2.95;1.67;;;27.50;99.90;;;;;;4977992;28;20402;-75
2023/08/15 13:28:41;;;;;;;2.92;1.73;;;27.50;99.90;;;;;;4978888;28;20348;-75
2023/08/15 13:31:27;;;;;;;3.33;1.88;;;27.80;99.90;;;;;;4963340;28;20066;-76
2023/08/15 13:34:13;;;;;;;4.20;2.00;;;27.90;99.90;;;;;;4959034;28;20085;-77
2023/08/15 13:36:59;;;;;;;3.70;1.63;;;28.00;99.90;;;;;;4977887;28;20102;-76
2023/08/15 13:39:44;;;;;;;6.00;2.22;;;28.10;99.50;;;;;;4976413;28;20043;-76
2023/08/15 13:42:30;;;;;;;3.00;1.60;;;28.10;99.60;;;;;;4991109;28;20053;-76
2023/08/15 13:45:17;;;;;;;2.78;1.60;;;28.30;98.80;;;;;;4979082;28;20096;-75
2023/08/15 13:48:03;;;;;;;1.95;1.45;;;28.20;98.10;;;;;;4954359;28;20052;-75
2023/08/15 13:50:49;;;;;;;3.08;1.60;;;28.50;98.50;;;;;;4972280;28;20665;-76
2023/08/15 13:53:35;;;;;;;3.88;1.70;;;28.20;97.60;;;;;;4975828;28;20096;-75
2023/08/15 13:56:21;;;;;;;4.30;1.85;;;27.80;98.70;;;;;;4989457;28;20048;-75
2023/08/15 13:59:07;;;;;;;3.97;1.98;;;27.80;99.30;;;;;;4978809;28;20105;-75
2023/08/15 14:01:53;;;;;;;3.47;1.52;;;28.20;98.70;;;;;;4992777;28;20359;-75
2023/08/15 14:04:39;;;;;;;2.50;1.40;;;27.70;99.00;;;;;;4979493;28;20086;-75
2023/08/15 14:07:25;;;;;;;2.20;1.50;;;27.70;99.60;;;;;;4990044;28;20092;-75
2023/08/15 14:10:12;;;;;;;4.63;1.70;;;27.90;99.60;;;;;;4977062;28;20332;-75
2023/08/15 14:12:58;;;;;;;2.63;1.60;;;27.80;99.60;;;;;;4975285;28;20105;-75
2023/08/15 14:15:44;;;;;;;2.95;2.00;;;27.60;99.90;;;;;;4983501;28;20340;-75
2023/08/15 14:18:32;;;;;;;2.15;1.67;;;27.50;99.90;;;;;;4977107;28;20053;-76
2023/08/15 14:21:18;;;;;;;2.15;1.60;;;27.70;99.90;;;;;;4991590;28;20034;-76
2023/08/15 14:24:04;;;;;;;4.90;2.08;;;27.70;99.70;;;;;;4970916;28;20426;-75
2023/08/15 14:26:50;;;;;;;3.20;2.20;;;27.40;99.80;;;;;;4991491;28;20184;-75
2023/08/15 14:29:36;;;;;;;2.88;1.92;;;27.70;99.90;;;;;;4982839;28;20082;-75
2023/08/15 14:32:22;;;;;;;3.33;1.90;;;27.70;99.90;;;;;;4985619;28;20536;-75